Time;durP1;ratioP1;P1;durP2;ratioP2;P2;SDS_P1;SDS_P2;PMS_P1;PMS_P2;Temp;Humidity;BMP_temperature;BMP_pressure;BME280_temperature;BME280_humidity;BME280_pressure;Samples;Min_cycle;Max_cycle;Signal;HPM_P1;HPM_P2
2023/09/04 00:01:56;;;;;;;3.92;3.00;;;18.90;99.90;;;;;;4962799;28;20043;-74
2023/09/04 00:04:27;;;;;;;4.20;3.00;;;18.80;99.90;;;;;;4962866;28;20129;-75
2023/09/04 00:06:54;;;;;;;5.18;3.20;;;18.80;99.90;;;;;;4980215;28;20135;-75
2023/09/04 00:09:22;;;;;;;8.23;3.33;;;18.70;99.90;;;;;;4961809;28;20061;-77
2023/09/04 00:11:49;;;;;;;5.25;3.58;;;18.60;99.90;;;;;;4977168;28;20042;-75
2023/09/04 00:14:17;;;;;;;4.25;3.28;;;18.50;99.90;;;;;;4973641;28;20059;-76
2023/09/04 00:16:45;;;;;;;4.15;3.00;;;18.50;99.90;;;;;;4956035;28;20053;-76
2023/09/04 00:19:15;;;;;;;4.53;3.20;;;18.40;99.90;;;;;;4973482;28;20049;-77
2023/09/04 00:21:43;;;;;;;5.63;3.10;;;18.30;99.90;;;;;;4973817;28;20062;-76
2023/09/04 00:24:10;;;;;;;3.95;3.00;;;18.30;99.90;;;;;;4973424;28;20051;-76
2023/09/04 00:26:38;;;;;;;4.60;3.10;;;18.30;99.90;;;;;;4972698;28;20562;-76
2023/09/04 00:29:06;;;;;;;4.35;2.85;;;18.30;99.90;;;;;;4972326;28;20055;-75
2023/09/04 00:31:34;;;;;;;4.78;3.20;;;18.30;99.90;;;;;;4954370;28;20570;-76
2023/09/04 00:34:03;;;;;;;4.22;3.20;;;18.20;99.90;;;;;;4955436;28;20955;-76
2023/09/04 00:36:30;;;;;;;4.82;3.10;;;18.10;99.90;;;;;;4973145;28;20541;-77
2023/09/04 00:38:58;;;;;;;5.72;3.35;;;18.10;99.90;;;;;;4972532;28;20046;-76
2023/09/04 00:41:25;;;;;;;5.63;3.72;;;18.00;99.90;;;;;;4972727;28;20705;-76
2023/09/04 00:43:53;;;;;;;4.05;3.10;;;18.00;99.90;;;;;;4955062;28;20165;-77
2023/09/04 00:46:21;;;;;;;6.35;3.10;;;18.00;99.90;;;;;;4955685;28;20122;-76
2023/09/04 00:48:49;;;;;;;3.95;2.92;;;18.00;99.90;;;;;;4984473;28;20046;-75
2023/09/04 00:51:19;;;;;;;3.83;3.00;;;18.00;99.90;;;;;;4958591;28;20078;-76
2023/09/04 00:53:48;;;;;;;4.95;3.50;;;18.00;99.90;;;;;;4972920;28;20105;-78
2023/09/04 00:56:16;;;;;;;4.72;3.58;;;18.00;99.90;;;;;;4972356;28;20051;-78
2023/09/04 00:58:44;;;;;;;4.38;3.20;;;18.00;99.90;;;;;;4954325;28;20039;-75
2023/09/04 01:01:12;;;;;;;6.38;3.00;;;18.00;99.90;;;;;;4973751;28;20146;-77
2023/09/04 01:04:05;;;;;;;5.95;3.20;;;17.90;99.90;;;;;;4972000;28;20057;-75
2023/09/04 01:06:34;;;;;;;4.85;3.28;;;17.90;99.90;;;;;;4972722;28;20094;-75
2023/09/04 01:09:02;;;;;;;3.85;3.17;;;17.90;99.90;;;;;;4954274;28;20145;-79
2023/09/04 01:11:38;;;;;;;4.13;3.05;;;17.80;99.90;;;;;;4972460;28;20034;-76
2023/09/04 01:14:11;;;;;;;;;;;17.70;99.90;;;;;;4946591;28;20460;-75
2023/09/04 01:16:40;;;;;;;8.60;3.80;;;17.70;99.90;;;;;;4935312;29;19982;-76
2023/09/04 01:19:11;;;;;;;5.57;3.75;;;17.60;99.90;;;;;;4940421;29;20050;-77
2023/09/04 01:21:40;;;;;;;5.38;3.47;;;17.70;99.90;;;;;;4936092;29;20036;-76
2023/09/04 01:24:08;;;;;;;8.43;4.43;;;17.60;99.90;;;;;;4952811;29;20068;-76
2023/09/04 01:26:40;;;;;;;4.72;3.42;;;17.60;99.90;;;;;;4944083;28;20082;-76
2023/09/04 01:29:17;;;;;;;6.78;3.65;;;17.60;99.90;;;;;;4941204;29;20126;-75
2023/09/04 01:31:50;;;;;;;9.70;4.20;;;17.60;99.90;;;;;;4946306;29;20095;-77
2023/09/04 01:34:25;;;;;;;7.00;3.90;;;17.60;99.90;;;;;;4953410;29;20056;-76
2023/09/04 01:36:57;;;;;;;8.02;3.90;;;17.70;99.90;;;;;;4942730;29;20134;-76
2023/09/04 01:39:25;;;;;;;6.40;4.05;;;17.60;99.90;;;;;;4957051;28;20047;-76
2023/09/04 01:41:52;;;;;;;6.22;3.63;;;17.60;99.90;;;;;;4956044;28;20030;-76
2023/09/04 01:44:20;;;;;;;6.30;4.00;;;17.60;99.90;;;;;;4957319;28;20024;-77
2023/09/04 01:46:48;;;;;;;5.50;3.67;;;17.50;99.90;;;;;;4954795;28;20059;-76
2023/09/04 01:49:16;;;;;;;4.82;3.28;;;17.50;99.90;;;;;;4941837;29;20085;-75
2023/09/04 01:51:44;;;;;;;5.47;3.70;;;17.50;99.90;;;;;;4945263;29;20036;-78
2023/09/04 01:54:14;;;;;;;6.30;4.10;;;17.40;99.90;;;;;;4971185;29;20028;-76
2023/09/04 01:56:42;;;;;;;8.13;4.50;;;17.40;99.90;;;;;;4955318;28;20032;-75
2023/09/04 01:59:09;;;;;;;5.47;4.03;;;17.40;99.90;;;;;;4952510;29;20055;-77
2023/09/04 02:01:37;;;;;;;7.55;4.30;;;17.30;99.90;;;;;;4939062;29;20107;-75
2023/09/04 02:04:05;;;;;;;7.43;4.72;;;17.20;99.90;;;;;;4933005;29;20392;-76
2023/09/04 02:06:33;;;;;;;5.75;3.97;;;17.20;99.90;;;;;;4933497;29;20091;-76
2023/09/04 02:09:00;;;;;;;5.97;3.97;;;17.20;99.90;;;;;;4934456;29;20126;-76
2023/09/04 02:11:29;;;;;;;7.90;3.90;;;17.20;99.90;;;;;;4954466;29;20038;-77
2023/09/04 02:13:56;;;;;;;8.38;4.00;;;17.20;99.90;;;;;;4951833;28;20121;-76
2023/09/04 02:16:24;;;;;;;5.28;4.10;;;17.10;99.90;;;;;;4952078;28;20131;-76
2023/09/04 02:18:52;;;;;;;5.32;4.10;;;17.10;99.90;;;;;;4952233;28;20043;-76
2023/09/04 02:21:19;;;;;;;7.82;4.20;;;17.10;99.90;;;;;;4957540;28;20070;-77
2023/09/04 02:23:47;;;;;;;6.22;4.68;;;17.10;99.90;;;;;;4971331;28;20066;-76
2023/09/04 02:26:14;;;;;;;9.27;5.28;;;17.10;99.90;;;;;;4972174;28;20130;-74
2023/09/04 02:28:43;;;;;;;5.07;3.92;;;17.10;99.90;;;;;;4952423;28;20522;-75
2023/09/04 02:31:12;;;;;;;5.40;3.78;;;17.00;99.90;;;;;;4970872;28;20047;-76
2023/09/04 02:33:39;;;;;;;7.55;3.58;;;16.90;99.90;;;;;;4971172;28;20105;-77
2023/09/04 02:36:06;;;;;;;5.82;4.15;;;16.80;99.90;;;;;;4953541;28;20130;-75
2023/09/04 02:38:34;;;;;;;4.72;3.85;;;16.70;99.90;;;;;;4971213;28;20055;-75
2023/09/04 02:41:01;;;;;;;5.57;3.67;;;16.70;99.90;;;;;;4970378;28;20061;-75
2023/09/04 02:43:29;;;;;;;5.90;4.07;;;16.60;99.90;;;;;;4971484;28;20406;-74
2023/09/04 02:45:59;;;;;;;7.15;3.60;;;16.60;99.90;;;;;;4971068;28;20119;-75
2023/09/04 02:48:26;;;;;;;5.78;3.92;;;16.50;99.90;;;;;;4953756;28;20408;-75
2023/09/04 02:50:58;;;;;;;6.00;4.50;;;16.50;99.90;;;;;;4970933;28;20125;-76
2023/09/04 02:53:27;;;;;;;4.75;4.00;;;16.40;99.90;;;;;;4966717;28;20398;-76
2023/09/04 02:55:54;;;;;;;6.60;4.18;;;16.40;99.90;;;;;;4970563;28;20090;-76
2023/09/04 02:58:22;;;;;;;5.13;3.63;;;16.40;99.90;;;;;;4952045;28;20047;-77
2023/09/04 03:00:58;;;;;;;5.55;3.70;;;16.30;99.90;;;;;;4970846;28;20050;-76
2023/09/04 03:03:25;;;;;;;6.53;3.95;;;16.30;99.90;;;;;;4975363;28;20115;-75
2023/09/04 03:05:57;;;;;;;4.97;4.10;;;16.30;99.90;;;;;;4986031;28;20050;-75
2023/09/04 03:08:24;;;;;;;6.07;3.75;;;16.20;99.90;;;;;;4953531;28;20442;-75
2023/09/04 03:10:52;;;;;;;9.00;4.07;;;16.20;99.90;;;;;;4971315;28;20049;-75
2023/09/04 03:13:19;;;;;;;7.38;4.60;;;16.10;99.90;;;;;;4972744;28;20435;-73
2023/09/04 03:15:47;;;;;;;7.60;3.97;;;16.10;99.90;;;;;;4957191;28;20058;-76
2023/09/04 03:18:16;;;;;;;5.68;3.88;;;16.00;99.90;;;;;;4956133;28;20133;-74
2023/09/04 03:20:44;;;;;;;8.27;3.88;;;16.00;99.90;;;;;;4957128;28;20499;-76
2023/09/04 03:23:12;;;;;;;6.63;4.05;;;16.00;99.90;;;;;;4957808;28;20247;-76
2023/09/04 03:25:40;;;;;;;7.18;4.25;;;16.00;99.90;;;;;;4956638;28;20043;-74
2023/09/04 03:28:09;;;;;;;5.32;3.95;;;16.00;99.90;;;;;;4955613;28;20049;-75
2023/09/04 03:30:36;;;;;;;7.97;4.22;;;15.90;99.90;;;;;;4974342;28;20038;-76
2023/09/04 03:33:07;;;;;;;8.40;4.30;;;15.90;99.90;;;;;;4956273;28;20043;-77
2023/09/04 03:35:36;;;;;;;9.02;4.82;;;15.80;99.90;;;;;;4974552;28;20062;-75
2023/09/04 03:38:04;;;;;;;6.72;4.80;;;15.70;99.90;;;;;;4957034;28;20070;-73
2023/09/04 03:40:31;;;;;;;7.40;4.20;;;15.70;99.90;;;;;;4975629;28;20125;-73
2023/09/04 03:42:58;;;;;;;7.28;4.32;;;15.60;99.90;;;;;;4973790;28;20043;-75
2023/09/04 03:45:32;;;;;;;6.18;4.20;;;15.50;99.90;;;;;;4957591;28;20138;-75
2023/09/04 03:47:59;;;;;;;6.13;4.60;;;15.40;99.90;;;;;;4956091;28;20034;-75
2023/09/04 03:50:27;;;;;;;6.40;4.90;;;15.40;99.90;;;;;;4955565;28;20049;-75
2023/09/04 03:52:56;;;;;;;7.03;4.53;;;15.40;99.90;;;;;;4973991;28;20070;-74
2023/09/04 03:55:24;;;;;;;6.72;4.70;;;15.30;99.90;;;;;;4982784;28;20109;-75
2023/09/04 03:57:52;;;;;;;6.97;4.97;;;15.20;99.90;;;;;;4973540;28;20200;-75
2023/09/04 04:00:22;;;;;;;6.40;5.10;;;15.20;99.90;;;;;;4956626;28;20043;-75
2023/09/04 04:02:51;;;;;;;6.80;5.20;;;15.20;99.90;;;;;;4968299;28;20031;-74
2023/09/04 04:05:20;;;;;;;5.75;4.60;;;15.20;99.90;;;;;;4979327;28;20392;-77
2023/09/04 04:07:47;;;;;;;7.38;4.78;;;15.20;99.90;;;;;;4995925;28;20055;-75
2023/09/04 04:10:17;;;;;;;5.85;4.63;;;15.30;99.90;;;;;;4991641;28;20054;-74
2023/09/04 04:12:44;;;;;;;7.15;4.60;;;15.40;99.90;;;;;;4968097;28;20130;-74
2023/09/04 04:15:12;;;;;;;7.95;4.30;;;15.40;99.90;;;;;;4981329;28;20118;-75
2023/09/04 04:17:40;;;;;;;6.38;4.63;;;15.40;99.90;;;;;;4955161;28;20054;-75
2023/09/04 04:20:10;;;;;;;8.60;4.97;;;15.40;99.90;;;;;;4974453;28;20059;-75
2023/09/04 04:22:38;;;;;;;11.93;5.25;;;15.30;99.90;;;;;;4973883;28;20047;-75
2023/09/04 04:25:06;;;;;;;8.95;5.40;;;15.30;99.90;;;;;;4953893;28;20565;-74
2023/09/04 04:27:38;;;;;;;8.18;4.43;;;15.30;99.90;;;;;;4975547;28;20126;-75
2023/09/04 04:30:07;;;;;;;10.63;4.80;;;15.40;99.90;;;;;;4972048;28;20134;-75
2023/09/04 04:32:46;;;;;;;9.70;5.47;;;15.40;99.90;;;;;;4956500;28;20373;-75
2023/09/04 04:35:14;;;;;;;6.72;4.50;;;15.40;99.90;;;;;;4957073;28;20043;-74
2023/09/04 04:37:41;;;;;;;11.38;5.90;;;15.40;99.90;;;;;;4986446;28;20038;-75
2023/09/04 04:40:10;;;;;;;5.03;4.18;;;15.40;99.90;;;;;;4990393;28;20090;-75
2023/09/04 04:42:41;;;;;;;10.85;4.95;;;15.50;99.90;;;;;;4958459;28;20414;-75
2023/09/04 04:45:11;;;;;;;10.82;4.95;;;15.50;99.90;;;;;;4988878;28;20039;-75
2023/09/04 04:47:38;;;;;;;14.07;7.30;;;15.60;99.90;;;;;;4971393;28;20069;-75
2023/09/04 04:50:09;;;;;;;7.05;4.90;;;15.70;99.90;;;;;;4961484;28;20043;-74
2023/09/04 04:52:38;;;;;;;11.52;5.47;;;15.80;99.90;;;;;;4971986;28;20137;-76
2023/09/04 04:55:07;;;;;;;7.18;4.90;;;15.80;99.90;;;;;;4957349;28;20050;-76
2023/09/04 04:57:35;;;;;;;5.63;4.43;;;15.90;99.90;;;;;;4973623;28;20054;-75
2023/09/04 05:00:06;;;;;;;8.18;5.53;;;15.90;99.90;;;;;;4973254;28;20053;-75
2023/09/04 05:02:35;;;;;;;8.05;4.90;;;15.90;99.90;;;;;;4955016;28;20431;-75
2023/09/04 05:05:03;;;;;;;7.72;5.20;;;15.90;99.90;;;;;;4962388;28;20038;-75
2023/09/04 05:07:32;;;;;;;13.10;7.22;;;15.90;99.90;;;;;;4958172;28;20051;-76
2023/09/04 05:10:00;;;;;;;8.52;4.95;;;15.90;99.90;;;;;;4953673;28;20050;-75
2023/09/04 05:12:28;;;;;;;6.22;4.43;;;15.90;99.90;;;;;;4956508;28;20050;-76
2023/09/04 05:14:55;;;;;;;5.80;5.05;;;16.10;99.90;;;;;;4972205;28;20043;-75
2023/09/04 05:17:24;;;;;;;7.40;4.40;;;16.10;99.90;;;;;;4973505;28;20117;-75
2023/09/04 05:19:52;;;;;;;8.07;5.18;;;16.20;99.90;;;;;;4953902;28;20507;-75
2023/09/04 05:22:20;;;;;;;11.40;5.38;;;16.30;99.90;;;;;;4954236;28;20118;-75
2023/09/04 05:24:47;;;;;;;6.57;4.95;;;16.40;99.90;;;;;;4972303;28;20057;-75
2023/09/04 05:27:15;;;;;;;11.50;5.82;;;16.60;99.90;;;;;;4971338;28;20411;-76
2023/09/04 05:29:42;;;;;;;10.90;7.07;;;16.70;99.90;;;;;;4971941;28;20054;-76
2023/09/04 05:32:10;;;;;;;7.43;4.78;;;16.80;99.90;;;;;;4971251;28;20485;-76
2023/09/04 05:34:40;;;;;;;8.45;5.95;;;17.00;99.90;;;;;;4971929;28;20042;-77
2023/09/04 05:37:08;;;;;;;5.80;4.32;;;17.20;99.90;;;;;;4971078;28;20446;-76
2023/09/04 05:39:35;;;;;;;9.63;6.20;;;17.50;99.90;;;;;;4972492;28;20035;-75
2023/09/04 05:42:03;;;;;;;8.75;6.97;;;17.70;99.90;;;;;;4971653;28;20058;-76
2023/09/04 05:44:30;;;;;;;8.10;5.13;;;17.90;99.90;;;;;;4971912;28;20047;-76
2023/09/04 05:46:58;;;;;;;9.93;7.63;;;18.10;99.90;;;;;;4971394;28;20047;-77
2023/09/04 05:49:25;;;;;;;18.52;11.75;;;18.30;99.90;;;;;;4954232;28;20214;-75
2023/09/04 05:51:54;;;;;;;8.25;6.13;;;18.60;99.90;;;;;;4973168;28;20129;-75
2023/09/04 05:54:22;;;;;;;8.93;5.40;;;18.90;99.90;;;;;;4971255;28;20046;-77
2023/09/04 05:56:51;;;;;;;8.13;5.15;;;19.30;99.90;;;;;;4972053;28;20039;-77
2023/09/04 05:59:18;;;;;;;10.32;5.18;;;19.60;99.90;;;;;;4971515;28;20047;-76
2023/09/04 06:01:45;;;;;;;8.32;5.25;;;19.90;99.90;;;;;;4971620;28;20126;-76
2023/09/04 06:04:14;;;;;;;6.68;5.05;;;20.10;99.90;;;;;;4973215;28;20046;-77
2023/09/04 06:06:41;;;;;;;6.55;4.78;;;20.40;99.90;;;;;;4972276;28;20421;-77
2023/09/04 06:09:10;;;;;;;9.63;7.10;;;20.60;99.90;;;;;;4971589;28;20047;-76
2023/09/04 06:11:38;;;;;;;8.57;5.45;;;20.80;99.90;;;;;;4972090;28;20042;-76
2023/09/04 06:14:05;;;;;;;11.10;6.03;;;20.90;99.90;;;;;;4971560;28;20095;-77
2023/09/04 06:16:34;;;;;;;25.80;8.68;;;21.10;99.90;;;;;;4971862;28;20055;-78
2023/09/04 06:19:02;;;;;;;7.57;6.18;;;21.10;99.90;;;;;;4952749;28;20134;-76
2023/09/04 06:21:29;;;;;;;18.10;6.40;;;21.30;99.90;;;;;;4972216;28;20043;-76
2023/09/04 06:23:57;;;;;;;14.48;7.68;;;21.30;99.90;;;;;;4971173;28;20145;-76
2023/09/04 06:26:26;;;;;;;12.68;8.00;;;21.20;99.90;;;;;;4953003;28;20050;-77
2023/09/04 06:28:53;;;;;;;9.27;4.57;;;21.10;99.90;;;;;;4969634;28;20107;-75
2023/09/04 06:31:21;;;;;;;7.47;4.63;;;21.40;99.90;;;;;;4970978;28;20122;-77
2023/09/04 06:33:56;;;;;;;10.10;6.78;;;21.70;99.90;;;;;;4972509;28;20109;-76
2023/09/04 06:36:23;;;;;;;12.30;6.35;;;21.80;99.90;;;;;;4972862;28;20050;-77
2023/09/04 06:38:51;;;;;;;7.95;4.80;;;21.70;99.90;;;;;;4971810;28;20470;-78
2023/09/04 06:41:21;;;;;;;6.68;4.53;;;21.50;99.90;;;;;;4972224;28;20487;-77
2023/09/04 06:43:50;;;;;;;16.63;6.22;;;21.40;99.90;;;;;;4972308;28;20430;-76
2023/09/04 06:46:17;;;;;;;9.45;4.40;;;21.10;99.90;;;;;;4953695;28;20127;-76
2023/09/04 06:48:45;;;;;;;5.72;3.83;;;20.90;99.90;;;;;;4969936;28;20050;-78
2023/09/04 06:51:12;;;;;;;6.03;3.88;;;21.00;99.90;;;;;;4971034;28;20070;-76
2023/09/04 06:53:40;;;;;;;5.90;3.22;;;20.90;99.90;;;;;;4976706;28;20078;-74
2023/09/04 06:56:07;;;;;;;5.47;3.50;;;20.80;99.90;;;;;;4983069;28;20053;-78
2023/09/04 06:58:35;;;;;;;6.07;3.17;;;20.50;99.90;;;;;;4980186;28;20065;-77
2023/09/04 07:01:04;;;;;;;5.35;3.17;;;20.40;99.90;;;;;;4980309;28;20051;-75
2023/09/04 07:03:32;;;;;;;4.88;3.53;;;20.00;99.90;;;;;;4981660;28;20091;-76
2023/09/04 07:05:59;;;;;;;7.93;3.75;;;20.00;99.90;;;;;;4975653;28;20047;-76
2023/09/04 07:08:30;;;;;;;5.53;3.53;;;19.90;99.90;;;;;;4959186;28;20035;-77
2023/09/04 07:11:00;;;;;;;6.50;3.28;;;19.90;99.90;;;;;;4970879;28;20055;-77
2023/09/04 07:13:27;;;;;;;7.53;4.65;;;20.00;99.90;;;;;;4953700;28;20486;-76
2023/09/04 07:15:55;;;;;;;5.30;3.30;;;20.10;99.90;;;;;;4953052;28;20051;-78
2023/09/04 07:18:23;;;;;;;5.43;3.13;;;20.10;99.90;;;;;;4971975;28;20053;-76
2023/09/04 07:20:51;;;;;;;4.20;3.05;;;20.10;99.90;;;;;;4970723;28;20057;-75
2023/09/04 07:23:19;;;;;;;4.95;3.10;;;19.70;99.90;;;;;;4953234;28;20069;-76
2023/09/04 07:25:46;;;;;;;4.43;2.92;;;19.50;99.90;;;;;;4969689;28;20051;-78
2023/09/04 07:28:14;;;;;;;6.63;3.38;;;19.90;99.90;;;;;;4970507;28;20117;-79
2023/09/04 07:30:41;;;;;;;5.60;2.97;;;19.80;99.90;;;;;;4955016;28;20093;-77
2023/09/04 07:33:09;;;;;;;6.38;2.97;;;20.10;99.90;;;;;;4974451;28;20035;-78
2023/09/04 07:35:38;;;;;;;7.40;3.63;;;20.30;99.90;;;;;;4970004;28;20039;-77
2023/09/04 07:38:05;;;;;;;5.80;3.53;;;20.50;99.90;;;;;;4953470;28;20043;-76
2023/09/04 07:40:33;;;;;;;8.30;5.97;;;20.90;99.90;;;;;;4961036;28;20062;-77
2023/09/04 07:43:01;;;;;;;8.70;4.63;;;20.90;99.90;;;;;;4976602;28;20046;-76
2023/09/04 07:45:28;;;;;;;5.07;3.40;;;21.30;99.90;;;;;;4968766;28;20066;-77
2023/09/04 07:47:56;;;;;;;4.55;2.83;;;21.20;99.90;;;;;;4982813;28;20105;-75
2023/09/04 07:50:23;;;;;;;8.30;3.75;;;21.20;99.90;;;;;;4981355;28;20035;-77
2023/09/04 07:52:52;;;;;;;6.07;3.30;;;21.20;99.90;;;;;;4961511;28;20039;-76
2023/09/04 07:55:19;;;;;;;7.25;5.20;;;21.40;99.90;;;;;;4968839;28;20050;-76
2023/09/04 07:57:47;;;;;;;5.18;3.15;;;21.70;99.90;;;;;;4971381;28;20047;-78
2023/09/04 08:00:21;;;;;;;7.05;3.60;;;21.70;99.90;;;;;;4973882;28;20482;-78
2023/09/04 08:02:50;;;;;;;4.18;2.83;;;21.40;99.90;;;;;;4974688;28;20046;-76
2023/09/04 08:05:17;;;;;;;45.63;4.00;;;21.10;99.90;;;;;;4957201;28;20043;-76
2023/09/04 08:07:45;;;;;;;5.50;3.15;;;21.00;99.90;;;;;;4956107;28;20046;-75
2023/09/04 08:10:13;;;;;;;7.68;3.65;;;21.10;99.90;;;;;;4973058;28;20518;-76
2023/09/04 08:12:41;;;;;;;7.05;2.88;;;21.00;99.90;;;;;;4972328;28;20058;-77
2023/09/04 08:15:10;;;;;;;7.50;3.45;;;20.80;99.90;;;;;;4972881;28;20541;-76
2023/09/04 08:17:48;;;;;;;5.05;3.20;;;20.60;99.90;;;;;;4972868;28;20054;-75
2023/09/04 08:20:15;;;;;;;5.63;3.40;;;20.60;99.90;;;;;;4972738;28;20050;-77
2023/09/04 08:22:43;;;;;;;5.35;3.50;;;21.20;99.90;;;;;;4973283;28;20507;-76
2023/09/04 08:25:10;;;;;;;5.43;3.10;;;21.50;99.90;;;;;;4973045;28;20041;-77
2023/09/04 08:27:41;;;;;;;5.10;3.10;;;21.70;99.90;;;;;;4973239;28;20043;-77
2023/09/04 08:30:09;;;;;;;5.75;3.35;;;21.80;99.90;;;;;;4972610;28;20510;-76
2023/09/04 08:32:37;;;;;;;6.32;3.40;;;21.10;99.90;;;;;;4973066;28;20063;-76
2023/09/04 08:35:05;;;;;;;5.78;3.40;;;21.00;99.90;;;;;;4973262;28;20260;-76
2023/09/04 08:37:45;;;;;;;4.30;3.20;;;20.40;99.90;;;;;;4972868;28;20073;-76
2023/09/04 08:40:13;;;;;;;5.57;3.50;;;20.50;99.90;;;;;;4983734;28;20066;-76
2023/09/04 08:42:46;;;;;;;6.15;3.80;;;20.80;99.90;;;;;;4990461;28;20046;-76
2023/09/04 08:45:17;;;;;;;8.85;4.10;;;20.90;99.90;;;;;;4986384;28;20043;-75
2023/09/04 08:47:45;;;;;;;5.65;4.00;;;21.00;99.90;;;;;;4989462;28;20054;-76
2023/09/04 08:50:12;;;;;;;6.18;3.80;;;20.90;99.90;;;;;;4990357;28;20117;-77
2023/09/04 08:52:41;;;;;;;6.13;3.80;;;21.00;99.90;;;;;;4970871;28;20042;-75
2023/09/04 08:55:09;;;;;;;6.70;3.95;;;21.10;99.90;;;;;;4972193;28;20058;-75
2023/09/04 08:57:36;;;;;;;5.93;3.63;;;20.90;99.90;;;;;;4988635;28;20106;-75
2023/09/04 09:00:07;;;;;;;6.53;3.63;;;20.90;99.90;;;;;;4990716;28;20039;-78
2023/09/04 09:02:35;;;;;;;13.50;9.35;;;21.00;99.90;;;;;;4987853;28;20097;-76
2023/09/04 09:05:04;;;;;;;6.80;4.25;;;21.10;99.90;;;;;;4971802;28;20046;-75
2023/09/04 09:07:32;;;;;;;9.45;5.80;;;21.50;99.90;;;;;;4989826;28;20083;-75
2023/09/04 09:10:04;;;;;;;7.57;4.07;;;21.80;99.90;;;;;;4988605;28;20053;-76
2023/09/04 09:12:33;;;;;;;6.63;4.30;;;22.20;99.90;;;;;;4984015;28;20055;-76
2023/09/04 09:15:01;;;;;;;7.22;4.25;;;22.20;99.90;;;;;;4985409;28;20043;-76
2023/09/04 09:17:30;;;;;;;5.88;4.13;;;22.00;99.90;;;;;;4976613;28;20191;-75
2023/09/04 09:19:57;;;;;;;9.27;5.15;;;21.70;99.90;;;;;;4982878;28;20047;-77
2023/09/04 09:22:24;;;;;;;6.20;4.35;;;21.90;99.90;;;;;;4984027;28;20054;-77
2023/09/04 09:24:54;;;;;;;7.80;4.50;;;22.00;99.90;;;;;;4980370;28;20493;-76
2023/09/04 09:27:24;;;;;;;5.35;3.95;;;21.50;99.90;;;;;;4962640;28;20110;-78
2023/09/04 09:29:52;;;;;;;5.65;4.25;;;21.50;99.90;;;;;;4973783;28;20382;-77
2023/09/04 09:32:20;;;;;;;6.80;4.20;;;22.00;99.90;;;;;;4974521;28;20081;-75
2023/09/04 09:34:53;;;;;;;5.93;4.45;;;22.30;99.90;;;;;;4973378;28;20487;-76
2023/09/04 09:37:22;;;;;;;8.10;4.28;;;22.40;99.90;;;;;;4955140;28;20049;-78
2023/09/04 09:39:50;;;;;;;5.63;4.00;;;22.80;99.90;;;;;;4955907;28;20054;-75
2023/09/04 09:42:20;;;;;;;7.32;4.45;;;23.10;99.90;;;;;;4973564;28;20047;-76
2023/09/04 09:44:52;;;;;;;5.95;3.28;;;23.30;99.90;;;;;;4974083;28;20038;-76
2023/09/04 09:47:19;;;;;;;7.88;6.20;;;23.40;99.90;;;;;;4955044;28;20047;-77
2023/09/04 09:49:47;;;;;;;4.80;3.85;;;22.90;99.90;;;;;;4972973;28;20047;-78
2023/09/04 09:52:17;;;;;;;8.13;5.22;;;23.10;99.90;;;;;;4972380;28;20039;-77
2023/09/04 09:54:47;;;;;;;6.18;4.60;;;23.30;99.90;;;;;;4972799;28;20049;-76
2023/09/04 09:57:16;;;;;;;5.70;3.03;;;23.40;99.90;;;;;;4964433;28;20046;-77
2023/09/04 09:59:45;;;;;;;4.55;3.30;;;22.90;99.90;;;;;;4958996;28;20050;-79
2023/09/04 10:02:18;;;;;;;7.10;4.60;;;22.00;99.90;;;;;;4972378;28;20333;-76
2023/09/04 10:04:46;;;;;;;4.05;3.28;;;22.10;99.90;;;;;;4954714;28;20046;-76
2023/09/04 10:07:19;;;;;;;5.32;3.20;;;22.10;99.90;;;;;;4971928;28;20055;-75
2023/09/04 10:09:50;;;;;;;4.13;3.30;;;21.80;99.90;;;;;;4955267;28;20042;-76
2023/09/04 10:12:25;;;;;;;4.20;3.35;;;21.70;99.90;;;;;;4971833;28;20065;-74
2023/09/04 10:14:55;;;;;;;;;;;21.90;99.90;;;;;;4953946;28;20075;-76
2023/09/04 10:17:32;;;;;;;4.25;2.90;;;21.90;99.90;;;;;;4970662;28;19926;-76
2023/09/04 10:22:47;;;;;;;5.55;3.33;;;21.90;99.90;;;;;;4987654;28;20051;-82
2023/09/04 10:25:26;;;;;;;6.72;3.58;;;21.70;99.90;;;;;;4973975;28;20050;-83
2023/09/04 10:28:04;;;;;;;4.90;3.33;;;21.70;99.90;;;;;;4974381;28;20107;-83
2023/09/04 10:30:36;;;;;;;3.90;2.97;;;21.80;99.90;;;;;;4973875;29;20050;-82
2023/09/04 10:33:03;;;;;;;7.53;3.60;;;21.90;99.90;;;;;;4956190;29;20107;-82
2023/09/04 10:35:32;;;;;;;6.28;4.05;;;22.20;99.90;;;;;;4970820;28;20067;-83
2023/09/04 10:38:01;;;;;;;4.78;3.17;;;22.40;99.90;;;;;;4968317;28;20119;-83
2023/09/04 10:40:30;;;;;;;4.88;3.03;;;22.60;99.90;;;;;;4962088;28;20046;-83
2023/09/04 10:43:03;;;;;;;4.82;2.85;;;22.70;99.90;;;;;;4957465;28;20581;-83
2023/09/04 10:45:31;;;;;;;4.38;2.92;;;22.70;99.90;;;;;;4958104;29;20122;-82
2023/09/04 10:48:00;;;;;;;5.45;3.70;;;22.90;99.90;;;;;;4955632;28;20051;-84
2023/09/04 10:50:29;;;;;;;5.70;3.58;;;23.20;99.90;;;;;;4954638;28;20592;-81
2023/09/04 10:52:57;;;;;;;4.40;3.10;;;23.30;99.90;;;;;;4953780;28;20047;-82
2023/09/04 10:55:26;;;;;;;5.50;3.20;;;23.30;99.90;;;;;;4951835;28;20039;-81
2023/09/04 10:57:57;;;;;;;4.55;3.35;;;23.50;99.90;;;;;;4952677;28;20063;-81
2023/09/04 11:00:29;;;;;;;4.95;3.15;;;23.30;99.90;;;;;;4938803;29;20058;-83
2023/09/04 11:03:14;;;;;;;3.78;2.75;;;22.80;99.90;;;;;;4957949;28;20115;-82
2023/09/04 11:06:09;;;;;;;4.50;2.83;;;22.80;99.90;;;;;;4953759;29;20049;-83
2023/09/04 11:08:40;;;;;;;3.80;2.42;;;22.40;99.90;;;;;;4908205;29;20070;-82
2023/09/04 11:11:13;;;;;;;5.28;2.83;;;22.30;99.90;;;;;;4956718;28;20059;-84
2023/09/04 11:13:43;;;;;;;5.93;3.85;;;22.60;99.90;;;;;;4962300;28;20047;-82
2023/09/04 11:16:10;;;;;;;5.63;3.25;;;23.00;99.90;;;;;;4938688;29;20047;-83
2023/09/04 11:18:45;;;;;;;4.63;3.03;;;22.90;99.90;;;;;;4954197;29;20129;-83
2023/09/04 11:21:14;;;;;;;4.78;2.90;;;22.70;99.90;;;;;;4953247;28;20052;-83
2023/09/04 11:23:42;;;;;;;5.68;3.72;;;22.80;99.90;;;;;;4952196;28;20074;-84
2023/09/04 11:26:11;;;;;;;5.72;3.17;;;22.90;99.90;;;;;;4952157;28;20047;-83
2023/09/04 11:28:40;;;;;;;6.55;3.50;;;22.80;99.90;;;;;;4951372;28;20054;-86
2023/09/04 11:31:08;;;;;;;6.00;3.35;;;23.10;99.90;;;;;;4934764;28;20066;-83
2023/09/04 11:33:36;;;;;;;5.40;3.13;;;23.50;99.90;;;;;;4935068;29;20058;-83
2023/09/04 11:36:06;;;;;;;7.88;3.67;;;23.80;99.90;;;;;;4955806;28;20051;-86
2023/09/04 11:38:35;;;;;;;5.13;2.95;;;23.70;99.90;;;;;;4961341;28;20047;-83
2023/09/04 11:41:14;;;;;;;5.20;3.10;;;22.90;99.90;;;;;;4953702;28;20130;-86
2023/09/04 11:43:43;;;;;;;4.25;2.75;;;22.90;99.90;;;;;;4955235;28;20043;-82
2023/09/04 11:46:12;;;;;;;6.30;3.10;;;23.00;99.90;;;;;;4955668;28;20118;-84
2023/09/04 11:48:40;;;;;;;5.25;3.20;;;23.30;99.90;;;;;;4954698;29;20496;-81
2023/09/04 11:51:10;;;;;;;5.13;3.50;;;23.40;99.90;;;;;;4953675;28;20050;-81
2023/09/04 11:53:38;;;;;;;5.32;3.25;;;23.60;99.90;;;;;;4954603;28;20408;-82
2023/09/04 11:56:06;;;;;;;4.57;2.90;;;23.60;99.90;;;;;;4954031;28;20058;-81
2023/09/04 11:58:34;;;;;;;4.20;2.33;;;23.50;99.90;;;;;;4954762;28;20059;-80
2023/09/04 12:01:04;;;;;;;6.28;2.72;;;23.20;99.90;;;;;;4955122;28;20095;-80
2023/09/04 12:03:31;;;;;;;6.40;3.22;;;23.00;99.90;;;;;;4953492;28;20054;-81
2023/09/04 12:05:59;;;;;;;4.30;2.88;;;22.80;99.90;;;;;;4954322;28;20051;-82
2023/09/04 12:08:26;;;;;;;5.15;2.88;;;22.70;99.90;;;;;;4955119;28;20070;-81
2023/09/04 12:10:54;;;;;;;5.50;2.72;;;23.00;99.90;;;;;;4936437;29;20054;-82
2023/09/04 12:13:25;;;;;;;4.13;2.50;;;23.30;99.90;;;;;;4954022;28;20035;-81
2023/09/04 12:15:52;;;;;;;6.78;4.05;;;23.40;99.90;;;;;;4952382;28;20460;-79
2023/09/04 12:18:22;;;;;;;4.93;2.60;;;23.50;99.90;;;;;;4954279;29;20035;-80
2023/09/04 12:20:50;;;;;;;5.75;3.25;;;23.30;99.90;;;;;;4952507;28;20053;-80
2023/09/04 12:23:17;;;;;;;3.33;2.45;;;23.00;99.90;;;;;;4952481;28;20055;-79
2023/09/04 12:25:48;;;;;;;5.25;2.78;;;23.10;99.90;;;;;;4953706;28;20043;-79
2023/09/04 12:28:17;;;;;;;3.83;2.45;;;23.00;99.90;;;;;;4952986;28;20048;-78
2023/09/04 12:30:45;;;;;;;5.03;2.90;;;22.60;99.90;;;;;;4954786;29;20118;-82
2023/09/04 12:33:14;;;;;;;4.93;3.25;;;22.50;99.90;;;;;;4953726;28;20055;-79
2023/09/04 12:35:43;;;;;;;3.97;2.50;;;22.70;99.90;;;;;;4953636;29;21791;-80
2023/09/04 12:38:11;;;;;;;4.70;2.80;;;22.70;99.90;;;;;;4952753;28;20407;-81
2023/09/04 12:40:38;;;;;;;5.55;2.65;;;22.70;99.90;;;;;;4953516;28;20039;-80
2023/09/04 12:43:06;;;;;;;5.25;2.40;;;22.70;99.90;;;;;;4943249;28;20593;-81
2023/09/04 12:45:33;;;;;;;3.75;2.58;;;22.70;99.90;;;;;;4953569;28;20062;-81
2023/09/04 12:48:01;;;;;;;5.32;2.70;;;22.60;99.90;;;;;;4952827;28;20039;-80
2023/09/04 12:50:29;;;;;;;7.63;2.70;;;22.70;99.90;;;;;;4952567;28;20130;-81
2023/09/04 12:52:57;;;;;;;5.20;2.85;;;23.00;99.90;;;;;;4953094;28;20142;-82
2023/09/04 12:55:26;;;;;;;5.35;2.30;;;22.80;99.90;;;;;;4935576;29;20062;-82
2023/09/04 12:58:00;;;;;;;5.57;2.80;;;22.60;99.90;;;;;;4952746;28;20062;-81